PWSweather.com
Personal Weather Stations
Station Observations
TXALLEN104
Watters Crossing, Allen, TX 75013

Watters CrossingAllen, TX 75013

Lat: 33.096, Lon: -96.697

Elevation: 672

Station Type: Davis Vantage Pro2 Plus

http://www.allenweather.com

High Low Average
Temperature 88.4°F31.3°C 72.9°F22.7°C 76.6°F24.8°C
Dew Point 77.6°F25.3°C 70.2°F21.2°C 72.6°F22.6°C
Winds 5.0 mph 8.0 kmh Calm Calm 1.0 mph SSW1.6 kmh SSW
Wind Gusts 14.0 mph22.5 kmh -- 3.0 mph4.8 kmh
Humidity 94% 65% 88%
Pressure 30.00 in1015.9 mb 29.87 in1011.5 mb -
Precipitation 0.43 in10.9 mm - -
Hour Temp Dew Point Humidity Winds Wind Gusts Pressure Precip Precip Rate Daily Precip Total
12:00 AM 75.0°F23.9°C 71.5°F21.9°C 89% 1.0 mph SSE1.6 kmh SSE 7.0 mph11.3 kmh 30.00 in1015.9 mb 0.00 in0.0 mm 0.00 in0.0 mm 0.00 in0.0 mm
12:05 AM 74.9°F23.8°C 71.4°F21.9°C 89% 1.0 mph S1.6 kmh S 6.0 mph9.7 kmh 30.00 in1015.9 mb 0.00 in0.0 mm 0.00 in0.0 mm 0.00 in0.0 mm
12:10 AM 74.9°F23.8°C 71.4°F21.9°C 89% 2.0 mph SSW3.2 kmh SSW 7.0 mph11.3 kmh 30.00 in1015.9 mb 0.00 in0.0 mm 0.00 in0.0 mm 0.00 in0.0 mm
12:15 AM 74.9°F23.8°C 71.4°F21.9°C 89% 1.0 mph S1.6 kmh S 4.0 mph6.4 kmh 30.00 in1015.9 mb 0.00 in0.0 mm 0.00 in0.0 mm 0.00 in0.0 mm
12:20 AM 74.8°F23.8°C 71.3°F21.8°C 89% 1.0 mph S1.6 kmh S 4.0 mph6.4 kmh 30.00 in1015.9 mb 0.00 in0.0 mm 0.00 in0.0 mm 0.00 in0.0 mm
12:25 AM 74.6°F23.7°C 71.1°F21.7°C 89% 1.0 mph ESE1.6 kmh ESE 6.0 mph9.7 kmh 30.00 in1015.9 mb 0.00 in0.0 mm 0.00 in0.0 mm 0.00 in0.0 mm
12:30 AM 74.6°F23.7°C 71.1°F21.7°C 89% 1.0 mph SSW1.6 kmh SSW 5.0 mph8.0 kmh 30.00 in1015.9 mb 0.00 in0.0 mm 0.00 in0.0 mm 0.00 in0.0 mm
12:35 AM 74.5°F23.6°C 71.0°F21.7°C 89% 2.0 mph S3.2 kmh S 6.0 mph9.7 kmh 30.00 in1015.9 mb 0.00 in0.0 mm 0.00 in0.0 mm 0.00 in0.0 mm
12:40 AM 74.5°F23.6°C 71.0°F21.7°C 89% 1.0 mph S1.6 kmh S 4.0 mph6.4 kmh 30.00 in1015.9 mb 0.00 in0.0 mm 0.00 in0.0 mm 0.00 in0.0 mm
12:45 AM 74.4°F23.6°C 70.9°F21.6°C 89% 1.0 mph S1.6 kmh S 3.0 mph4.8 kmh 30.00 in1015.9 mb 0.00 in0.0 mm 0.00 in0.0 mm 0.00 in0.0 mm
12:50 AM 74.4°F23.6°C 71.3°F21.8°C 90% 2.0 mph S3.2 kmh S 6.0 mph9.7 kmh 30.00 in1015.9 mb 0.00 in0.0 mm 0.00 in0.0 mm 0.00 in0.0 mm
12:55 AM 74.3°F23.5°C 71.2°F21.8°C 90% 2.0 mph SSW3.2 kmh SSW 7.0 mph11.3 kmh 30.00 in1015.9 mb 0.00 in0.0 mm 0.00 in0.0 mm 0.00 in0.0 mm
01:00 AM 74.5°F23.6°C 71.0°F21.7°C 89% 1.0 mph SSW1.6 kmh SSW 3.0 mph4.8 kmh 30.00 in1015.9 mb 0.00 in0.0 mm 0.00 in0.0 mm 0.00 in0.0 mm
01:05 AM 74.5°F23.6°C 71.0°F21.7°C 89% 1.0 mph SSW1.6 kmh SSW 4.0 mph6.4 kmh 30.00 in1015.9 mb 0.00 in0.0 mm 0.00 in0.0 mm 0.00 in0.0 mm
01:10 AM 74.5°F23.6°C 71.0°F21.7°C 89% Calm Calm 3.0 mph4.8 kmh 29.99 in1015.6 mb 0.00 in0.0 mm 0.00 in0.0 mm 0.00 in0.0 mm
01:15 AM 74.4°F23.6°C 70.9°F21.6°C 89% 1.0 mph S1.6 kmh S 3.0 mph4.8 kmh 30.00 in1015.9 mb 0.00 in0.0 mm 0.00 in0.0 mm 0.00 in0.0 mm
01:20 AM 74.6°F23.7°C 71.1°F21.7°C 89% 1.0 mph S1.6 kmh S 4.0 mph6.4 kmh 30.00 in1015.9 mb 0.00 in0.0 mm 0.00 in0.0 mm 0.00 in0.0 mm
01:25 AM 74.5°F23.6°C 71.0°F21.7°C 89% Calm Calm 3.0 mph4.8 kmh 30.00 in1015.9 mb 0.00 in0.0 mm 0.00 in0.0 mm 0.00 in0.0 mm
01:30 AM 74.4°F23.6°C 70.9°F21.6°C 89% 1.0 mph S1.6 kmh S 4.0 mph6.4 kmh 30.00 in1015.9 mb 0.00 in0.0 mm 0.00 in0.0 mm 0.00 in0.0 mm
01:35 AM 74.5°F23.6°C 71.0°F21.7°C 89% 1.0 mph S1.6 kmh S 5.0 mph8.0 kmh 30.00 in1015.9 mb 0.00 in0.0 mm 0.00 in0.0 mm 0.00 in0.0 mm
01:40 AM 74.6°F23.7°C 71.1°F21.7°C 89% Calm Calm 1.0 mph1.6 kmh 30.00 in1015.9 mb 0.00 in0.0 mm 0.00 in0.0 mm 0.00 in0.0 mm
01:45 AM 74.7°F23.7°C 70.9°F21.6°C 88% Calm Calm -- 30.00 in1015.9 mb 0.00 in0.0 mm 0.00 in0.0 mm 0.00 in0.0 mm
01:50 AM 74.6°F23.7°C 70.8°F21.6°C 88% Calm Calm -- 29.99 in1015.6 mb 0.00 in0.0 mm 0.00 in0.0 mm 0.00 in0.0 mm
01:55 AM 74.5°F23.6°C 70.7°F21.5°C 88% 1.0 mph S1.6 kmh S 6.0 mph9.7 kmh 29.99 in1015.6 mb 0.00 in0.0 mm 0.00 in0.0 mm 0.00 in0.0 mm
02:00 AM 74.5°F23.6°C 71.0°F21.7°C 89% 2.0 mph SSE3.2 kmh SSE 6.0 mph9.7 kmh 29.99 in1015.6 mb 0.00 in0.0 mm 0.00 in0.0 mm 0.00 in0.0 mm
02:05 AM 74.5°F23.6°C 71.0°F21.7°C 89% 1.0 mph SSW1.6 kmh SSW 4.0 mph6.4 kmh 29.99 in1015.6 mb 0.00 in0.0 mm 0.00 in0.0 mm 0.00 in0.0 mm
02:10 AM 74.5°F23.6°C 71.0°F21.7°C 89% 1.0 mph S1.6 kmh S 4.0 mph6.4 kmh 29.99 in1015.6 mb 0.00 in0.0 mm 0.00 in0.0 mm 0.00 in0.0 mm
02:15 AM 74.4°F23.6°C 70.9°F21.6°C 89% 1.0 mph S1.6 kmh S 7.0 mph11.3 kmh 29.98 in1015.2 mb 0.00 in0.0 mm 0.00 in0.0 mm 0.00 in0.0 mm
02:20 AM 74.4°F23.6°C 70.9°F21.6°C 89% Calm Calm 4.0 mph6.4 kmh 29.98 in1015.2 mb 0.00 in0.0 mm 0.00 in0.0 mm 0.00 in0.0 mm
02:25 AM 74.5°F23.6°C 71.0°F21.7°C 89% Calm Calm 3.0 mph4.8 kmh 29.98 in1015.2 mb 0.00 in0.0 mm 0.00 in0.0 mm 0.00 in0.0 mm
02:30 AM 74.5°F23.6°C 70.7°F21.5°C 88% 1.0 mph S1.6 kmh S 4.0 mph6.4 kmh 29.98 in1015.2 mb 0.00 in0.0 mm 0.00 in0.0 mm 0.00 in0.0 mm
02:35 AM 74.5°F23.6°C 71.0°F21.7°C 89% 1.0 mph S1.6 kmh S 4.0 mph6.4 kmh 29.98 in1015.2 mb 0.00 in0.0 mm 0.00 in0.0 mm 0.00 in0.0 mm
02:40 AM 74.4°F23.6°C 70.9°F21.6°C 89% Calm Calm 2.0 mph3.2 kmh 29.98 in1015.2 mb 0.00 in0.0 mm 0.00 in0.0 mm 0.00 in0.0 mm
02:45 AM 74.4°F23.6°C 70.9°F21.6°C 89% Calm Calm 2.0 mph3.2 kmh 29.98 in1015.2 mb 0.00 in0.0 mm 0.00 in0.0 mm 0.00 in0.0 mm
02:50 AM 74.4°F23.6°C 70.9°F21.6°C 89% Calm Calm -- 29.98 in1015.2 mb 0.00 in0.0 mm 0.00 in0.0 mm 0.00 in0.0 mm
02:55 AM 74.5°F23.6°C 71.0°F21.7°C 89% Calm Calm 3.0 mph4.8 kmh 29.98 in1015.2 mb 0.00 in0.0 mm 0.00 in0.0 mm 0.00 in0.0 mm
03:00 AM 74.4°F23.6°C 70.9°F21.6°C 89% Calm Calm 2.0 mph3.2 kmh 29.98 in1015.2 mb 0.00 in0.0 mm 0.00 in0.0 mm 0.00 in0.0 mm
03:05 AM 74.5°F23.6°C 71.0°F21.7°C 89% Calm Calm -- 29.98 in1015.2 mb 0.00 in0.0 mm 0.00 in0.0 mm 0.00 in0.0 mm
03:10 AM 74.6°F23.7°C 71.1°F21.7°C 89% Calm Calm -- 29.98 in1015.2 mb 0.00 in0.0 mm 0.00 in0.0 mm 0.00 in0.0 mm
03:15 AM 74.7°F23.7°C 70.9°F21.6°C 88% 1.0 mph SSW1.6 kmh SSW 4.0 mph6.4 kmh 29.98 in1015.2 mb 0.00 in0.0 mm 0.00 in0.0 mm 0.00 in0.0 mm
03:20 AM 74.7°F23.7°C 70.9°F21.6°C 88% Calm Calm 2.0 mph3.2 kmh 29.98 in1015.2 mb 0.00 in0.0 mm 0.00 in0.0 mm 0.00 in0.0 mm
03:25 AM 74.6°F23.7°C 70.5°F21.4°C 87% Calm Calm 5.0 mph8.0 kmh 29.98 in1015.2 mb 0.00 in0.0 mm 0.00 in0.0 mm 0.00 in0.0 mm
03:30 AM 74.6°F23.7°C 70.5°F21.4°C 87% 2.0 mph S3.2 kmh S 6.0 mph9.7 kmh 29.98 in1015.2 mb 0.00 in0.0 mm 0.00 in0.0 mm 0.00 in0.0 mm
03:35 AM 74.6°F23.7°C 70.5°F21.4°C 87% 2.0 mph SSW3.2 kmh SSW 4.0 mph6.4 kmh 29.98 in1015.2 mb 0.00 in0.0 mm 0.00 in0.0 mm 0.00 in0.0 mm
03:40 AM 74.6°F23.7°C 70.5°F21.4°C 87% 3.0 mph S4.8 kmh S 8.0 mph12.9 kmh 29.99 in1015.6 mb 0.00 in0.0 mm 0.00 in0.0 mm 0.00 in0.0 mm
03:45 AM 74.4°F23.6°C 70.3°F21.3°C 87% Calm Calm 6.0 mph9.7 kmh 29.99 in1015.6 mb 0.00 in0.0 mm 0.00 in0.0 mm 0.00 in0.0 mm
03:50 AM 74.3°F23.5°C 70.5°F21.4°C 88% Calm Calm -- 30.00 in1015.9 mb 0.00 in0.0 mm 0.00 in0.0 mm 0.00 in0.0 mm
03:55 AM 74.0°F23.3°C 70.5°F21.4°C 89% 1.0 mph S1.6 kmh S 3.0 mph4.8 kmh 29.99 in1015.6 mb 0.02 in0.5 mm 0.24 in6.1 mm 0.02 in0.5 mm
04:00 AM 73.5°F23.1°C 70.4°F21.3°C 90% Calm Calm 3.0 mph4.8 kmh 29.99 in1015.6 mb 0.03 in0.8 mm 0.01 in0.3 mm 0.03 in0.8 mm
04:05 AM 73.4°F23.0°C 70.3°F21.3°C 90% Calm Calm 2.0 mph3.2 kmh 29.99 in1015.6 mb 0.04 in1.0 mm 0.12 in3.0 mm 0.04 in1.0 mm
04:10 AM 73.2°F22.9°C 70.4°F21.3°C 91% 1.0 mph S1.6 kmh S 7.0 mph11.3 kmh 29.99 in1015.6 mb 0.12 in3.0 mm 0.96 in24.4 mm 0.12 in3.0 mm
04:15 AM 73.0°F22.8°C 70.2°F21.2°C 91% 1.0 mph S1.6 kmh S 4.0 mph6.4 kmh 29.99 in1015.6 mb 0.15 in3.8 mm 0.36 in9.1 mm 0.15 in3.8 mm
04:20 AM 73.0°F22.8°C 70.5°F21.4°C 92% 1.0 mph SSW1.6 kmh SSW 6.0 mph9.7 kmh 29.99 in1015.6 mb 0.16 in4.1 mm 0.12 in3.0 mm 0.16 in4.1 mm
04:25 AM 72.9°F22.7°C 70.4°F21.3°C 92% Calm Calm 2.0 mph3.2 kmh 29.99 in1015.6 mb 0.17 in4.3 mm 0.12 in3.0 mm 0.17 in4.3 mm
04:30 AM 72.9°F22.7°C 70.4°F21.3°C 92% 1.0 mph S1.6 kmh S 4.0 mph6.4 kmh 29.99 in1015.6 mb 0.18 in4.6 mm 0.12 in3.0 mm 0.18 in4.6 mm
04:35 AM 73.0°F22.8°C 70.5°F21.4°C 92% Calm Calm 1.0 mph1.6 kmh 29.99 in1015.6 mb 0.19 in4.8 mm 0.12 in3.0 mm 0.19 in4.8 mm
04:40 AM 72.9°F22.7°C 70.8°F21.6°C 93% Calm Calm -- 29.99 in1015.6 mb 0.20 in5.1 mm 0.12 in3.0 mm 0.20 in5.1 mm
04:45 AM 73.0°F22.8°C 70.9°F21.6°C 93% Calm Calm -- 29.98 in1015.2 mb 0.22 in5.6 mm 0.24 in6.1 mm 0.22 in5.6 mm
04:50 AM 73.0°F22.8°C 70.9°F21.6°C 93% Calm Calm -- 29.98 in1015.2 mb 0.23 in5.8 mm 0.12 in3.0 mm 0.23 in5.8 mm
04:55 AM 72.9°F22.7°C 70.8°F21.6°C 93% Calm Calm 3.0 mph4.8 kmh 29.98 in1015.2 mb 0.22 in5.6 mm 0.00 in0.0 mm 0.24 in6.1 mm
05:00 AM 72.9°F22.7°C 70.8°F21.6°C 93% Calm Calm 1.0 mph1.6 kmh 29.98 in1015.2 mb 0.22 in5.6 mm 0.00 in0.0 mm 0.25 in6.4 mm
05:05 AM 72.9°F22.7°C 70.8°F21.6°C 93% Calm Calm 4.0 mph6.4 kmh 29.98 in1015.2 mb 0.21 in5.3 mm 0.00 in0.0 mm 0.25 in6.4 mm
05:10 AM 72.9°F22.7°C 70.8°F21.6°C 93% Calm Calm 2.0 mph3.2 kmh 29.98 in1015.2 mb 0.13 in3.3 mm 0.00 in0.0 mm 0.25 in6.4 mm
05:15 AM 72.9°F22.7°C 70.8°F21.6°C 93% 1.0 mph SE1.6 kmh SE 4.0 mph6.4 kmh 29.98 in1015.2 mb 0.10 in2.5 mm 0.00 in0.0 mm 0.25 in6.4 mm
05:20 AM 72.9°F22.7°C 71.1°F21.7°C 94% Calm Calm 6.0 mph9.7 kmh 29.98 in1015.2 mb 0.09 in2.3 mm 0.00 in0.0 mm 0.25 in6.4 mm
05:25 AM 73.0°F22.8°C 71.2°F21.8°C 94% Calm Calm 2.0 mph3.2 kmh 29.98 in1015.2 mb 0.08 in2.0 mm 0.00 in0.0 mm 0.25 in6.4 mm
05:30 AM 72.9°F22.7°C 71.1°F21.7°C 94% Calm Calm -- 29.98 in1015.2 mb 0.07 in1.8 mm 0.00 in0.0 mm 0.25 in6.4 mm
05:35 AM 72.9°F22.7°C 71.1°F21.7°C 94% 1.0 mph S1.6 kmh S 3.0 mph4.8 kmh 29.97 in1014.9 mb 0.06 in1.5 mm 0.00 in0.0 mm 0.25 in6.4 mm
05:40 AM 72.9°F22.7°C 71.1°F21.7°C 94% 1.0 mph S1.6 kmh S 4.0 mph6.4 kmh 29.97 in1014.9 mb 0.05 in1.3 mm 0.00 in0.0 mm 0.25 in6.4 mm
05:45 AM 73.1°F22.8°C 71.3°F21.8°C 94% Calm Calm 1.0 mph1.6 kmh 29.97 in1014.9 mb 0.03 in0.8 mm 0.00 in0.0 mm 0.25 in6.4 mm
05:50 AM 73.0°F22.8°C 71.2°F21.8°C 94% Calm Calm 1.0 mph1.6 kmh 29.97 in1014.9 mb 0.02 in0.5 mm 0.00 in0.0 mm 0.25 in6.4 mm
05:55 AM 72.9°F22.7°C 71.1°F21.7°C 94% Calm Calm 2.0 mph3.2 kmh 29.97 in1014.9 mb 0.01 in0.3 mm 0.00 in0.0 mm 0.25 in6.4 mm
06:00 AM 72.9°F22.7°C 71.1°F21.7°C 94% Calm Calm 4.0 mph6.4 kmh 29.97 in1014.9 mb 0.00 in0.0 mm 0.00 in0.0 mm 0.25 in6.4 mm
06:05 AM 72.9°F22.7°C 71.1°F21.7°C 94% 1.0 mph S1.6 kmh S 4.0 mph6.4 kmh 29.97 in1014.9 mb 0.00 in0.0 mm 0.00 in0.0 mm 0.25 in6.4 mm
06:10 AM 73.0°F22.8°C 71.2°F21.8°C 94% 1.0 mph SSE1.6 kmh SSE 6.0 mph9.7 kmh 29.97 in1014.9 mb 0.00 in0.0 mm 0.00 in0.0 mm 0.25 in6.4 mm
06:15 AM 73.0°F22.8°C 71.2°F21.8°C 94% 1.0 mph SSW1.6 kmh SSW 4.0 mph6.4 kmh 29.97 in1014.9 mb 0.00 in0.0 mm 0.00 in0.0 mm 0.25 in6.4 mm
06:20 AM 73.1°F22.8°C 71.3°F21.8°C 94% Calm Calm 5.0 mph8.0 kmh 29.97 in1014.9 mb 0.00 in0.0 mm 0.00 in0.0 mm 0.25 in6.4 mm
06:25 AM 73.2°F22.9°C 71.4°F21.9°C 94% 1.0 mph S1.6 kmh S 4.0 mph6.4 kmh 29.97 in1014.9 mb 0.00 in0.0 mm 0.00 in0.0 mm 0.25 in6.4 mm
06:30 AM 73.2°F22.9°C 71.4°F21.9°C 94% Calm Calm -- 29.97 in1014.9 mb 0.00 in0.0 mm 0.00 in0.0 mm 0.25 in6.4 mm
06:35 AM 73.4°F23.0°C 71.6°F22.0°C 94% 1.0 mph S1.6 kmh S 7.0 mph11.3 kmh 29.97 in1014.9 mb 0.00 in0.0 mm 0.00 in0.0 mm 0.25 in6.4 mm
06:40 AM 73.4°F23.0°C 71.6°F22.0°C 94% 1.0 mph SSE1.6 kmh SSE 6.0 mph9.7 kmh 29.97 in1014.9 mb 0.00 in0.0 mm 0.00 in0.0 mm 0.25 in6.4 mm
06:45 AM 73.5°F23.1°C 71.7°F22.1°C 94% 1.0 mph S1.6 kmh S 7.0 mph11.3 kmh 29.97 in1014.9 mb 0.00 in0.0 mm 0.00 in0.0 mm 0.25 in6.4 mm
06:50 AM 73.6°F23.1°C 71.8°F22.1°C 94% Calm Calm 3.0 mph4.8 kmh 29.97 in1014.9 mb 0.00 in0.0 mm 0.00 in0.0 mm 0.25 in6.4 mm
06:55 AM 73.7°F23.2°C 71.9°F22.2°C 94% 1.0 mph S1.6 kmh S 8.0 mph12.9 kmh 29.98 in1015.2 mb 0.00 in0.0 mm 0.00 in0.0 mm 0.25 in6.4 mm
07:00 AM 73.8°F23.2°C 72.0°F22.2°C 94% 1.0 mph S1.6 kmh S 4.0 mph6.4 kmh 29.98 in1015.2 mb 0.00 in0.0 mm 0.00 in0.0 mm 0.25 in6.4 mm
07:05 AM 73.8°F23.2°C 72.0°F22.2°C 94% 1.0 mph SW1.6 kmh SW 3.0 mph4.8 kmh 29.98 in1015.2 mb 0.00 in0.0 mm 0.00 in0.0 mm 0.25 in6.4 mm
07:10 AM 73.9°F23.3°C 72.1°F22.3°C 94% Calm Calm 5.0 mph8.0 kmh 29.98 in1015.2 mb 0.00 in0.0 mm 0.00 in0.0 mm 0.25 in6.4 mm
07:15 AM 73.9°F23.3°C 72.1°F22.3°C 94% Calm Calm 1.0 mph1.6 kmh 29.99 in1015.6 mb 0.00 in0.0 mm 0.00 in0.0 mm 0.25 in6.4 mm
07:20 AM 73.9°F23.3°C 72.1°F22.3°C 94% Calm Calm 2.0 mph3.2 kmh 29.99 in1015.6 mb 0.00 in0.0 mm 0.00 in0.0 mm 0.25 in6.4 mm
07:25 AM 73.9°F23.3°C 72.1°F22.3°C 94% Calm Calm 2.0 mph3.2 kmh 29.99 in1015.6 mb 0.00 in0.0 mm 0.00 in0.0 mm 0.25 in6.4 mm
07:30 AM 73.8°F23.2°C 72.0°F22.2°C 94% Calm Calm 2.0 mph3.2 kmh 29.99 in1015.6 mb 0.00 in0.0 mm 0.00 in0.0 mm 0.25 in6.4 mm
07:35 AM 73.9°F23.3°C 72.1°F22.3°C 94% Calm Calm 3.0 mph4.8 kmh 29.99 in1015.6 mb 0.00 in0.0 mm 0.00 in0.0 mm 0.25 in6.4 mm
07:40 AM 73.8°F23.2°C 72.0°F22.2°C 94% Calm Calm 1.0 mph1.6 kmh 29.99 in1015.6 mb 0.00 in0.0 mm 0.00 in0.0 mm 0.25 in6.4 mm
07:45 AM 73.9°F23.3°C 72.1°F22.3°C 94% Calm Calm -- 29.99 in1015.6 mb 0.00 in0.0 mm 0.00 in0.0 mm 0.25 in6.4 mm
07:50 AM 74.0°F23.3°C 72.2°F22.3°C 94% Calm Calm -- 29.99 in1015.6 mb 0.00 in0.0 mm 0.00 in0.0 mm 0.25 in6.4 mm
07:55 AM 74.0°F23.3°C 72.2°F22.3°C 94% Calm Calm -- 30.00 in1015.9 mb 0.00 in0.0 mm 0.00 in0.0 mm 0.25 in6.4 mm
08:00 AM 74.0°F23.3°C 72.2°F22.3°C 94% Calm Calm -- 30.00 in1015.9 mb 0.00 in0.0 mm 0.00 in0.0 mm 0.25 in6.4 mm
08:05 AM 74.0°F23.3°C 72.2°F22.3°C 94% Calm Calm -- 30.00 in1015.9 mb 0.00 in0.0 mm 0.00 in0.0 mm 0.25 in6.4 mm
08:10 AM 74.0°F23.3°C 72.2°F22.3°C 94% Calm Calm -- 30.00 in1015.9 mb 0.00 in0.0 mm 0.00 in0.0 mm 0.25 in6.4 mm
08:15 AM 74.1°F23.4°C 72.3°F22.4°C 94% Calm Calm -- 30.00 in1015.9 mb 0.00 in0.0 mm 0.00 in0.0 mm 0.25 in6.4 mm
08:20 AM 74.2°F23.4°C 72.4°F22.4°C 94% Calm Calm -- 30.00 in1015.9 mb 0.00 in0.0 mm 0.00 in0.0 mm 0.25 in6.4 mm
08:25 AM 74.4°F23.6°C 72.6°F22.6°C 94% Calm Calm -- 30.00 in1015.9 mb 0.00 in0.0 mm 0.00 in0.0 mm 0.25 in6.4 mm
08:30 AM 74.4°F23.6°C 72.6°F22.6°C 94% Calm Calm -- 30.00 in1015.9 mb 0.00 in0.0 mm 0.00 in0.0 mm 0.25 in6.4 mm
08:35 AM 74.6°F23.7°C 72.8°F22.7°C 94% Calm Calm -- 30.00 in1015.9 mb 0.00 in0.0 mm 0.00 in0.0 mm 0.25 in6.4 mm
08:40 AM 74.7°F23.7°C 72.9°F22.7°C 94% Calm Calm -- 30.00 in1015.9 mb 0.00 in0.0 mm 0.00 in0.0 mm 0.25 in6.4 mm
08:45 AM 74.6°F23.7°C 72.8°F22.7°C 94% Calm Calm -- 30.00 in1015.9 mb 0.00 in0.0 mm 0.00 in0.0 mm 0.25 in6.4 mm
08:50 AM 74.7°F23.7°C 72.9°F22.7°C 94% Calm Calm -- 30.00 in1015.9 mb 0.00 in0.0 mm 0.00 in0.0 mm 0.25 in6.4 mm
08:55 AM 74.9°F23.8°C 73.1°F22.8°C 94% Calm Calm -- 30.00 in1015.9 mb 0.00 in0.0 mm 0.00 in0.0 mm 0.25 in6.4 mm
09:00 AM 75.0°F23.9°C 73.2°F22.9°C 94% Calm Calm -- 30.00 in1015.9 mb 0.00 in0.0 mm 0.00 in0.0 mm 0.25 in6.4 mm
09:05 AM 75.0°F23.9°C 73.2°F22.9°C 94% Calm Calm -- 30.00 in1015.9 mb 0.00 in0.0 mm 0.00 in0.0 mm 0.25 in6.4 mm
09:10 AM 75.0°F23.9°C 73.2°F22.9°C 94% Calm Calm -- 30.00 in1015.9 mb 0.00 in0.0 mm 0.00 in0.0 mm 0.25 in6.4 mm
09:15 AM 75.1°F23.9°C 73.2°F22.9°C 94% Calm Calm -- 30.00 in1015.9 mb 0.00 in0.0 mm 0.00 in0.0 mm 0.25 in6.4 mm
09:20 AM 75.2°F24.0°C 73.3°F22.9°C 94% Calm Calm -- 30.00 in1015.9 mb 0.00 in0.0 mm 0.00 in0.0 mm 0.25 in6.4 mm
09:25 AM 75.3°F24.1°C 73.4°F23.0°C 94% Calm Calm -- 30.00 in1015.9 mb 0.00 in0.0 mm 0.00 in0.0 mm 0.25 in6.4 mm
09:30 AM 75.4°F24.1°C 73.5°F23.1°C 94% Calm Calm -- 30.00 in1015.9 mb 0.00 in0.0 mm 0.00 in0.0 mm 0.25 in6.4 mm
09:35 AM 75.6°F24.2°C 73.7°F23.2°C 94% Calm Calm 2.0 mph3.2 kmh 30.00 in1015.9 mb 0.00 in0.0 mm 0.00 in0.0 mm 0.25 in6.4 mm
09:40 AM 75.8°F24.3°C 73.9°F23.3°C 94% 1.0 mph S1.6 kmh S 4.0 mph6.4 kmh 29.99 in1015.6 mb 0.00 in0.0 mm 0.00 in0.0 mm 0.25 in6.4 mm
09:45 AM 76.0°F24.4°C 73.8°F23.2°C 93% Calm Calm 4.0 mph6.4 kmh 29.99 in1015.6 mb 0.00 in0.0 mm 0.00 in0.0 mm 0.25 in6.4 mm
09:50 AM 76.2°F24.6°C 74.0°F23.3°C 93% 1.0 mph SSW1.6 kmh SSW 5.0 mph8.0 kmh 29.99 in1015.6 mb 0.00 in0.0 mm 0.00 in0.0 mm 0.25 in6.4 mm
09:55 AM 76.5°F24.7°C 74.3°F23.5°C 93% Calm Calm 3.0 mph4.8 kmh 29.99 in1015.6 mb 0.00 in0.0 mm 0.00 in0.0 mm 0.25 in6.4 mm
10:00 AM 76.5°F24.7°C 74.3°F23.5°C 93% 1.0 mph SSW1.6 kmh SSW 4.0 mph6.4 kmh 29.99 in1015.6 mb 0.00 in0.0 mm 0.00 in0.0 mm 0.25 in6.4 mm
10:05 AM 76.7°F24.8°C 74.5°F23.6°C 93% Calm Calm -- 29.99 in1015.6 mb 0.00 in0.0 mm 0.00 in0.0 mm 0.25 in6.4 mm
10:10 AM 76.7°F24.8°C 74.5°F23.6°C 93% 1.0 mph SSW1.6 kmh SSW 3.0 mph4.8 kmh 29.99 in1015.6 mb 0.00 in0.0 mm 0.00 in0.0 mm 0.25 in6.4 mm
10:15 AM 76.9°F24.9°C 74.7°F23.7°C 93% Calm Calm 2.0 mph3.2 kmh 29.99 in1015.6 mb 0.00 in0.0 mm 0.00 in0.0 mm 0.25 in6.4 mm
10:20 AM 77.0°F25.0°C 74.5°F23.6°C 92% 1.0 mph S1.6 kmh S 3.0 mph4.8 kmh 30.00 in1015.9 mb 0.00 in0.0 mm 0.00 in0.0 mm 0.25 in6.4 mm
10:25 AM 77.0°F25.0°C 74.5°F23.6°C 92% 1.0 mph S1.6 kmh S 5.0 mph8.0 kmh 29.99 in1015.6 mb 0.00 in0.0 mm 0.00 in0.0 mm 0.25 in6.4 mm
10:30 AM 77.1°F25.1°C 74.6°F23.7°C 92% 1.0 mph S1.6 kmh S 6.0 mph9.7 kmh 29.99 in1015.6 mb 0.00 in0.0 mm 0.00 in0.0 mm 0.25 in6.4 mm
10:35 AM 77.3°F25.2°C 74.8°F23.8°C 92% 1.0 mph SSW1.6 kmh SSW 5.0 mph8.0 kmh 30.00 in1015.9 mb 0.00 in0.0 mm 0.00 in0.0 mm 0.25 in6.4 mm
10:40 AM 77.6°F25.3°C 74.8°F23.8°C 91% Calm Calm -- 29.99 in1015.6 mb 0.00 in0.0 mm 0.00 in0.0 mm 0.25 in6.4 mm
10:45 AM 78.1°F25.6°C 75.3°F24.1°C 91% Calm Calm -- 30.00 in1015.9 mb 0.00 in0.0 mm 0.00 in0.0 mm 0.25 in6.4 mm
10:50 AM 78.6°F25.9°C 75.4°F24.1°C 90% Calm Calm -- 30.00 in1015.9 mb 0.00 in0.0 mm 0.00 in0.0 mm 0.25 in6.4 mm
10:55 AM 78.7°F25.9°C 75.5°F24.2°C 90% 2.0 mph S3.2 kmh S 7.0 mph11.3 kmh 30.00 in1015.9 mb 0.00 in0.0 mm 0.00 in0.0 mm 0.25 in6.4 mm
11:00 AM 79.1°F26.2°C 75.6°F24.2°C 89% 1.0 mph S1.6 kmh S 4.0 mph6.4 kmh 29.99 in1015.6 mb 0.00 in0.0 mm 0.00 in0.0 mm 0.25 in6.4 mm
11:05 AM 79.3°F26.3°C 75.4°F24.1°C 88% 1.0 mph SE1.6 kmh SE 5.0 mph8.0 kmh 29.99 in1015.6 mb 0.00 in0.0 mm 0.00 in0.0 mm 0.25 in6.4 mm
11:10 AM 79.6°F26.4°C 75.7°F24.3°C 88% 2.0 mph S3.2 kmh S 6.0 mph9.7 kmh 29.99 in1015.6 mb 0.00 in0.0 mm 0.00 in0.0 mm 0.25 in6.4 mm
11:15 AM 79.5°F26.4°C 75.3°F24.1°C 87% 2.0 mph S3.2 kmh S 6.0 mph9.7 kmh 29.99 in1015.6 mb 0.00 in0.0 mm 0.00 in0.0 mm 0.25 in6.4 mm
11:20 AM 79.8°F26.6°C 75.6°F24.2°C 87% 1.0 mph S1.6 kmh S 5.0 mph8.0 kmh 29.99 in1015.6 mb 0.00 in0.0 mm 0.00 in0.0 mm 0.25 in6.4 mm
11:25 AM 80.1°F26.7°C 75.9°F24.4°C 87% 2.0 mph S3.2 kmh S 6.0 mph9.7 kmh 29.99 in1015.6 mb 0.00 in0.0 mm 0.00 in0.0 mm 0.25 in6.4 mm
11:30 AM 80.5°F26.9°C 76.3°F24.6°C 87% 1.0 mph SSW1.6 kmh SSW 5.0 mph8.0 kmh 29.99 in1015.6 mb 0.00 in0.0 mm 0.00 in0.0 mm 0.25 in6.4 mm
11:35 AM 80.8°F27.1°C 76.2°F24.6°C 86% 1.0 mph SSE1.6 kmh SSE 5.0 mph8.0 kmh 29.98 in1015.2 mb 0.00 in0.0 mm 0.00 in0.0 mm 0.25 in6.4 mm
11:40 AM 80.8°F27.1°C 76.2°F24.6°C 86% 2.0 mph S3.2 kmh S 7.0 mph11.3 kmh 29.98 in1015.2 mb 0.00 in0.0 mm 0.00 in0.0 mm 0.25 in6.4 mm
11:45 AM 81.1°F27.3°C 76.1°F24.5°C 85% 2.0 mph SSW3.2 kmh SSW 6.0 mph9.7 kmh 29.98 in1015.2 mb 0.00 in0.0 mm 0.00 in0.0 mm 0.25 in6.4 mm
11:50 AM 81.7°F27.6°C 76.7°F24.8°C 85% 2.0 mph SSE3.2 kmh SSE 6.0 mph9.7 kmh 29.97 in1014.9 mb 0.00 in0.0 mm 0.00 in0.0 mm 0.25 in6.4 mm
11:55 AM 82.2°F27.9°C 76.9°F24.9°C 84% 2.0 mph SSE3.2 kmh SSE 5.0 mph8.0 kmh 29.97 in1014.9 mb 0.00 in0.0 mm 0.00 in0.0 mm 0.25 in6.4 mm
12:00 PM 82.5°F28.1°C 76.4°F24.7°C 82% 3.0 mph S4.8 kmh S 10.0 mph16.1 kmh 29.97 in1014.9 mb 0.00 in0.0 mm 0.00 in0.0 mm 0.25 in6.4 mm
12:05 PM 83.0°F28.3°C 76.5°F24.7°C 81% 2.0 mph S3.2 kmh S 6.0 mph9.7 kmh 29.96 in1014.6 mb 0.00 in0.0 mm 0.00 in0.0 mm 0.25 in6.4 mm
12:10 PM 83.7°F28.7°C 76.9°F24.9°C 80% 4.0 mph S6.4 kmh S 8.0 mph12.9 kmh 29.96 in1014.6 mb 0.00 in0.0 mm 0.00 in0.0 mm 0.25 in6.4 mm
12:15 PM 84.6°F29.2°C 77.3°F25.2°C 79% 4.0 mph SSE6.4 kmh SSE 13.0 mph20.9 kmh 29.96 in1014.6 mb 0.00 in0.0 mm 0.00 in0.0 mm 0.25 in6.4 mm
12:20 PM 85.3°F29.6°C 77.6°F25.3°C 78% 2.0 mph S3.2 kmh S 13.0 mph20.9 kmh 29.95 in1014.2 mb 0.00 in0.0 mm 0.00 in0.0 mm 0.25 in6.4 mm
12:25 PM 85.2°F29.6°C 76.8°F24.9°C 76% 3.0 mph S4.8 kmh S 10.0 mph16.1 kmh 29.95 in1014.2 mb 0.00 in0.0 mm 0.00 in0.0 mm 0.25 in6.4 mm
12:30 PM 85.5°F29.7°C 77.0°F25.0°C 76% 4.0 mph S6.4 kmh S 9.0 mph14.5 kmh 29.95 in1014.2 mb 0.00 in0.0 mm 0.00 in0.0 mm 0.25 in6.4 mm
12:35 PM 85.7°F29.8°C 76.4°F24.7°C 74% 4.0 mph S6.4 kmh S 9.0 mph14.5 kmh 29.95 in1014.2 mb 0.00 in0.0 mm 0.00 in0.0 mm 0.25 in6.4 mm
12:40 PM 86.4°F30.2°C 75.9°F24.4°C 71% 4.0 mph SSE6.4 kmh SSE 13.0 mph20.9 kmh 29.94 in1013.9 mb 0.00 in0.0 mm 0.00 in0.0 mm 0.25 in6.4 mm
12:45 PM 85.8°F29.9°C 76.1°F24.5°C 73% 3.0 mph S4.8 kmh S 7.0 mph11.3 kmh 29.94 in1013.9 mb 0.00 in0.0 mm 0.00 in0.0 mm 0.25 in6.4 mm
12:50 PM 86.4°F30.2°C 76.7°F24.8°C 73% 4.0 mph S6.4 kmh S 14.0 mph22.5 kmh 29.94 in1013.9 mb 0.00 in0.0 mm 0.00 in0.0 mm 0.25 in6.4 mm
12:55 PM 87.6°F30.9°C 77.0°F25.0°C 71% 3.0 mph S4.8 kmh S 9.0 mph14.5 kmh 29.93 in1013.5 mb 0.00 in0.0 mm 0.00 in0.0 mm 0.25 in6.4 mm
01:00 PM 88.4°F31.3°C 76.5°F24.7°C 68% 4.0 mph SSE6.4 kmh SSE 12.0 mph19.3 kmh 29.93 in1013.5 mb 0.00 in0.0 mm 0.00 in0.0 mm 0.25 in6.4 mm
01:05 PM 88.1°F31.2°C 76.2°F24.6°C 68% 5.0 mph SSE8.0 kmh SSE 13.0 mph20.9 kmh 29.93 in1013.5 mb 0.00 in0.0 mm 0.00 in0.0 mm 0.25 in6.4 mm
01:10 PM 88.2°F31.2°C 76.3°F24.6°C 68% 4.0 mph S6.4 kmh S 10.0 mph16.1 kmh 29.92 in1013.2 mb 0.00 in0.0 mm 0.00 in0.0 mm 0.25 in6.4 mm
01:15 PM 87.7°F30.9°C 75.8°F24.3°C 68% 4.0 mph S6.4 kmh S 11.0 mph17.7 kmh 29.92 in1013.2 mb 0.00 in0.0 mm 0.00 in0.0 mm 0.25 in6.4 mm
01:20 PM 87.4°F30.8°C 76.0°F24.4°C 69% 2.0 mph S3.2 kmh S 9.0 mph14.5 kmh 29.92 in1013.2 mb 0.00 in0.0 mm 0.00 in0.0 mm 0.25 in6.4 mm
01:25 PM 86.8°F30.4°C 75.4°F24.1°C 69% 3.0 mph S4.8 kmh S 13.0 mph20.9 kmh 29.92 in1013.2 mb 0.00 in0.0 mm 0.00 in0.0 mm 0.25 in6.4 mm
01:30 PM 86.5°F30.3°C 75.1°F23.9°C 69% 3.0 mph SSW4.8 kmh SSW 12.0 mph19.3 kmh 29.91 in1012.9 mb 0.00 in0.0 mm 0.00 in0.0 mm 0.25 in6.4 mm
01:35 PM 86.2°F30.1°C 75.2°F24.0°C 70% 3.0 mph S4.8 kmh S 9.0 mph14.5 kmh 29.91 in1012.9 mb 0.00 in0.0 mm 0.00 in0.0 mm 0.25 in6.4 mm
01:40 PM 85.9°F29.9°C 75.0°F23.9°C 70% 3.0 mph S4.8 kmh S 9.0 mph14.5 kmh 29.91 in1012.9 mb 0.00 in0.0 mm 0.00 in0.0 mm 0.25 in6.4 mm
01:45 PM 86.0°F30.0°C 75.5°F24.2°C 71% 2.0 mph SSE3.2 kmh SSE 6.0 mph9.7 kmh 29.91 in1012.9 mb 0.00 in0.0 mm 0.00 in0.0 mm 0.25 in6.4 mm
01:50 PM 86.4°F30.2°C 75.9°F24.4°C 71% 3.0 mph S4.8 kmh S 10.0 mph16.1 kmh 29.91 in1012.9 mb 0.00 in0.0 mm 0.00 in0.0 mm 0.25 in6.4 mm
01:55 PM 86.8°F30.4°C 75.8°F24.3°C 70% 4.0 mph S6.4 kmh S 10.0 mph16.1 kmh 29.91 in1012.9 mb 0.00 in0.0 mm 0.00 in0.0 mm 0.25 in6.4 mm
02:00 PM 87.5°F30.8°C 74.7°F23.7°C 66% 4.0 mph S6.4 kmh S 11.0 mph17.7 kmh 29.91 in1012.9 mb 0.00 in0.0 mm 0.00 in0.0 mm 0.25 in6.4 mm
02:05 PM 87.3°F30.7°C 74.1°F23.4°C 65% 5.0 mph S8.0 kmh S 11.0 mph17.7 kmh 29.90 in1012.5 mb 0.00 in0.0 mm 0.00 in0.0 mm 0.25 in6.4 mm
02:10 PM 87.0°F30.6°C 74.2°F23.4°C 66% 4.0 mph S6.4 kmh S 12.0 mph19.3 kmh 29.90 in1012.5 mb 0.00 in0.0 mm 0.00 in0.0 mm 0.25 in6.4 mm
02:15 PM 86.6°F30.3°C 74.3°F23.5°C 67% 4.0 mph S6.4 kmh S 13.0 mph20.9 kmh 29.91 in1012.9 mb 0.00 in0.0 mm 0.00 in0.0 mm 0.25 in6.4 mm
02:20 PM 86.3°F30.2°C 74.0°F23.3°C 67% 4.0 mph SSE6.4 kmh SSE 10.0 mph16.1 kmh 29.90 in1012.5 mb 0.00 in0.0 mm 0.00 in0.0 mm 0.25 in6.4 mm
02:25 PM 86.0°F30.0°C 74.2°F23.4°C 68% 5.0 mph S8.0 kmh S 10.0 mph16.1 kmh 29.91 in1012.9 mb 0.00 in0.0 mm 0.00 in0.0 mm 0.25 in6.4 mm
02:30 PM 85.6°F29.8°C 73.8°F23.2°C 68% 4.0 mph S6.4 kmh S 11.0 mph17.7 kmh 29.91 in1012.9 mb 0.00 in0.0 mm 0.00 in0.0 mm 0.25 in6.4 mm
02:35 PM 85.3°F29.6°C 73.5°F23.1°C 68% 4.0 mph S6.4 kmh S 10.0 mph16.1 kmh 29.91 in1012.9 mb 0.00 in0.0 mm 0.00 in0.0 mm 0.25 in6.4 mm
02:40 PM 85.5°F29.7°C 73.3°F22.9°C 67% 4.0 mph SSE6.4 kmh SSE 11.0 mph17.7 kmh 29.91 in1012.9 mb 0.00 in0.0 mm 0.00 in0.0 mm 0.25 in6.4 mm
02:45 PM 85.6°F29.8°C 72.9°F22.7°C 66% 4.0 mph S6.4 kmh S 13.0 mph20.9 kmh 29.91 in1012.9 mb 0.00 in0.0 mm 0.00 in0.0 mm 0.25 in6.4 mm
02:50 PM 85.4°F29.7°C 72.3°F22.4°C 65% 3.0 mph SSW4.8 kmh SSW 13.0 mph20.9 kmh 29.91 in1012.9 mb 0.00 in0.0 mm 0.00 in0.0 mm 0.25 in6.4 mm
02:55 PM 85.3°F29.6°C 72.2°F22.3°C 65% 3.0 mph SSW4.8 kmh SSW 10.0 mph16.1 kmh 29.91 in1012.9 mb 0.00 in0.0 mm 0.00 in0.0 mm 0.25 in6.4 mm
03:00 PM 85.1°F29.5°C 72.4°F22.4°C 66% 3.0 mph S4.8 kmh S 7.0 mph11.3 kmh 29.91 in1012.9 mb 0.00 in0.0 mm 0.00 in0.0 mm 0.25 in6.4 mm
03:05 PM 84.6°F29.2°C 72.8°F22.7°C 68% 3.0 mph S4.8 kmh S 7.0 mph11.3 kmh 29.92 in1013.2 mb 0.00 in0.0 mm 0.00 in0.0 mm 0.25 in6.4 mm
03:10 PM 83.7°F28.7°C 72.9°F22.7°C 70% 2.0 mph SSW3.2 kmh SSW 8.0 mph12.9 kmh 29.92 in1013.2 mb 0.00 in0.0 mm 0.00 in0.0 mm 0.25 in6.4 mm
03:15 PM 82.9°F28.3°C 73.3°F22.9°C 73% 2.0 mph S3.2 kmh S 6.0 mph9.7 kmh 29.92 in1013.2 mb 0.00 in0.0 mm 0.00 in0.0 mm 0.25 in6.4 mm
03:20 PM 82.5°F28.1°C 73.4°F23.0°C 74% 2.0 mph SSW3.2 kmh SSW 9.0 mph14.5 kmh 29.91 in1012.9 mb 0.01 in0.3 mm 0.12 in3.0 mm 0.26 in6.6 mm
03:25 PM 81.7°F27.6°C 73.8°F23.2°C 77% 1.0 mph S1.6 kmh S 6.0 mph9.7 kmh 29.91 in1012.9 mb 0.01 in0.3 mm 0.00 in0.0 mm 0.26 in6.6 mm
03:30 PM 81.1°F27.3°C 73.6°F23.1°C 78% 1.0 mph SSW1.6 kmh SSW 5.0 mph8.0 kmh 29.91 in1012.9 mb 0.02 in0.5 mm 0.12 in3.0 mm 0.27 in6.9 mm
03:35 PM 80.7°F27.1°C 73.9°F23.3°C 80% 1.0 mph SSW1.6 kmh SSW 5.0 mph8.0 kmh 29.91 in1012.9 mb 0.02 in0.5 mm 0.00 in0.0 mm 0.27 in6.9 mm
03:40 PM 80.1°F26.7°C 73.7°F23.2°C 81% Calm Calm 3.0 mph4.8 kmh 29.92 in1013.2 mb 0.03 in0.8 mm 0.12 in3.0 mm 0.28 in7.1 mm
03:45 PM 79.4°F26.3°C 74.1°F23.4°C 84% 1.0 mph NW1.6 kmh NW 3.0 mph4.8 kmh 29.93 in1013.5 mb 0.04 in1.0 mm 0.12 in3.0 mm 0.29 in7.4 mm
03:50 PM 78.1°F25.6°C 73.2°F22.9°C 85% 4.0 mph NW6.4 kmh NW 9.0 mph14.5 kmh 29.92 in1013.2 mb 0.05 in1.3 mm 0.12 in3.0 mm 0.30 in7.6 mm
03:55 PM 76.8°F24.9°C 72.6°F22.6°C 87% 2.0 mph NW3.2 kmh NW 8.0 mph12.9 kmh 29.92 in1013.2 mb 0.06 in1.5 mm 0.12 in3.0 mm 0.31 in7.9 mm
04:00 PM 76.4°F24.7°C 72.6°F22.6°C 88% Calm Calm 2.0 mph3.2 kmh 29.92 in1013.2 mb 0.06 in1.5 mm 0.00 in0.0 mm 0.31 in7.9 mm
04:05 PM 76.3°F24.6°C 72.8°F22.7°C 89% Calm Calm 3.0 mph4.8 kmh 29.92 in1013.2 mb 0.06 in1.5 mm 0.00 in0.0 mm 0.31 in7.9 mm
04:10 PM 76.1°F24.5°C 72.9°F22.7°C 90% Calm Calm -- 29.91 in1012.9 mb 0.07 in1.8 mm 0.12 in3.0 mm 0.32 in8.1 mm
04:15 PM 76.4°F24.7°C 73.6°F23.1°C 91% Calm Calm -- 29.91 in1012.9 mb 0.07 in1.8 mm 0.00 in0.0 mm 0.32 in8.1 mm
04:20 PM 76.3°F24.6°C 73.5°F23.1°C 91% Calm Calm -- 29.92 in1013.2 mb 0.07 in1.8 mm 0.00 in0.0 mm 0.33 in8.4 mm
04:25 PM 76.3°F24.6°C 73.5°F23.1°C 91% Calm Calm -- 29.91 in1012.9 mb 0.07 in1.8 mm 0.00 in0.0 mm 0.33 in8.4 mm
04:30 PM 76.4°F24.7°C 73.9°F23.3°C 92% Calm Calm -- 29.91 in1012.9 mb 0.06 in1.5 mm 0.00 in0.0 mm 0.33 in8.4 mm
04:35 PM 76.4°F24.7°C 73.6°F23.1°C 91% Calm Calm -- 29.91 in1012.9 mb 0.06 in1.5 mm 0.00 in0.0 mm 0.33 in8.4 mm
04:40 PM 76.6°F24.8°C 73.8°F23.2°C 91% Calm Calm -- 29.90 in1012.5 mb 0.06 in1.5 mm 0.00 in0.0 mm 0.34 in8.6 mm
04:45 PM 76.6°F24.8°C 73.8°F23.2°C 91% Calm Calm -- 29.90 in1012.5 mb 0.05 in1.3 mm 0.00 in0.0 mm 0.34 in8.6 mm
04:50 PM 76.6°F24.8°C 73.8°F23.2°C 91% Calm Calm -- 29.90 in1012.5 mb 0.04 in1.0 mm 0.00 in0.0 mm 0.34 in8.6 mm
04:55 PM 76.7°F24.8°C 73.9°F23.3°C 91% Calm Calm -- 29.90 in1012.5 mb 0.03 in0.8 mm 0.00 in0.0 mm 0.34 in8.6 mm
05:00 PM 76.4°F24.7°C 73.6°F23.1°C 91% Calm Calm -- 29.89 in1012.2 mb 0.03 in0.8 mm 0.00 in0.0 mm 0.34 in8.6 mm
05:05 PM 76.4°F24.7°C 73.6°F23.1°C 91% Calm Calm -- 29.89 in1012.2 mb 0.03 in0.8 mm 0.00 in0.0 mm 0.34 in8.6 mm
05:10 PM 76.6°F24.8°C 74.1°F23.4°C 92% Calm Calm -- 29.89 in1012.2 mb 0.02 in0.5 mm 0.00 in0.0 mm 0.34 in8.6 mm
05:15 PM 76.7°F24.8°C 74.2°F23.4°C 92% Calm Calm -- 29.90 in1012.5 mb 0.02 in0.5 mm 0.00 in0.0 mm 0.34 in8.6 mm
05:20 PM 76.6°F24.8°C 74.1°F23.4°C 92% 2.0 mph NW3.2 kmh NW 6.0 mph9.7 kmh 29.91 in1012.9 mb 0.01 in0.3 mm 0.00 in0.0 mm 0.34 in8.6 mm
05:25 PM 76.0°F24.4°C 73.2°F22.9°C 91% 3.0 mph NW4.8 kmh NW 14.0 mph22.5 kmh 29.92 in1013.2 mb 0.02 in0.5 mm 0.12 in3.0 mm 0.35 in8.9 mm
05:30 PM 75.7°F24.3°C 72.9°F22.7°C 91% 4.0 mph NW6.4 kmh NW 11.0 mph17.7 kmh 29.92 in1013.2 mb 0.03 in0.8 mm 0.12 in3.0 mm 0.36 in9.1 mm
05:35 PM 75.1°F23.9°C 72.0°F22.2°C 90% 4.0 mph NNW6.4 kmh NNW 11.0 mph17.7 kmh 29.91 in1012.9 mb 0.06 in1.5 mm 0.36 in9.1 mm 0.39 in9.9 mm
05:40 PM 74.6°F23.7°C 71.8°F22.1°C 91% 3.0 mph NNW4.8 kmh NNW 11.0 mph17.7 kmh 29.92 in1013.2 mb 0.06 in1.5 mm 0.00 in0.0 mm 0.40 in10.2 mm
05:45 PM 74.1°F23.4°C 71.3°F21.8°C 91% 4.0 mph NW6.4 kmh NW 9.0 mph14.5 kmh 29.90 in1012.5 mb 0.09 in2.3 mm 0.36 in9.1 mm 0.43 in10.9 mm
05:50 PM 74.1°F23.4°C 71.6°F22.0°C 92% 3.0 mph NW4.8 kmh NW 8.0 mph12.9 kmh 29.90 in1012.5 mb 0.09 in2.3 mm 0.00 in0.0 mm 0.43 in10.9 mm
05:55 PM 73.9°F23.3°C 71.4°F21.9°C 92% 2.0 mph NW3.2 kmh NW 6.0 mph9.7 kmh 29.91 in1012.9 mb 0.09 in2.3 mm 0.00 in0.0 mm 0.43 in10.9 mm
06:00 PM 73.7°F23.2°C 71.2°F21.8°C 92% 1.0 mph NW1.6 kmh NW 5.0 mph8.0 kmh 29.91 in1012.9 mb 0.09 in2.3 mm 0.00 in0.0 mm 0.43 in10.9 mm
06:05 PM 73.6°F23.1°C 71.1°F21.7°C 92% 1.0 mph NW1.6 kmh NW 5.0 mph8.0 kmh 29.90 in1012.5 mb 0.09 in2.3 mm 0.00 in0.0 mm 0.43 in10.9 mm
06:10 PM 73.5°F23.1°C 71.0°F21.7°C 92% 1.0 mph NW1.6 kmh NW 3.0 mph4.8 kmh 29.90 in1012.5 mb 0.09 in2.3 mm 0.00 in0.0 mm 0.43 in10.9 mm
06:15 PM 73.5°F23.1°C 71.0°F21.7°C 92% 1.0 mph NW1.6 kmh NW 3.0 mph4.8 kmh 29.89 in1012.2 mb 0.09 in2.3 mm 0.00 in0.0 mm 0.43 in10.9 mm
06:20 PM 73.6°F23.1°C 71.1°F21.7°C 92% 1.0 mph NW1.6 kmh NW 3.0 mph4.8 kmh 29.89 in1012.2 mb 0.09 in2.3 mm 0.00 in0.0 mm 0.43 in10.9 mm
06:25 PM 73.7°F23.2°C 71.2°F21.8°C 92% Calm Calm 2.0 mph3.2 kmh 29.89 in1012.2 mb 0.08 in2.0 mm 0.00 in0.0 mm 0.43 in10.9 mm
06:30 PM 73.9°F23.3°C 71.4°F21.9°C 92% 1.0 mph NW1.6 kmh NW 4.0 mph6.4 kmh 29.88 in1011.9 mb 0.07 in1.8 mm 0.00 in0.0 mm 0.43 in10.9 mm
06:35 PM 74.1°F23.4°C 71.6°F22.0°C 92% 1.0 mph NW1.6 kmh NW 4.0 mph6.4 kmh 29.88 in1011.9 mb 0.04 in1.0 mm 0.00 in0.0 mm 0.43 in10.9 mm
06:40 PM 74.3°F23.5°C 71.8°F22.1°C 92% Calm Calm 3.0 mph4.8 kmh 29.88 in1011.9 mb 0.03 in0.8 mm 0.00 in0.0 mm 0.43 in10.9 mm
06:45 PM 74.5°F23.6°C 72.0°F22.2°C 92% Calm Calm 1.0 mph1.6 kmh 29.88 in1011.9 mb 0.00 in0.0 mm 0.00 in0.0 mm 0.43 in10.9 mm
06:50 PM 74.8°F23.8°C 72.3°F22.4°C 92% Calm Calm -- 29.87 in1011.5 mb 0.00 in0.0 mm 0.00 in0.0 mm 0.43 in10.9 mm
06:55 PM 75.0°F23.9°C 72.2°F22.3°C 91% Calm Calm -- 29.87 in1011.5 mb 0.00 in0.0 mm 0.00 in0.0 mm 0.43 in10.9 mm
07:00 PM 75.1°F23.9°C 72.3°F22.4°C 91% Calm Calm -- 29.88 in1011.9 mb 0.00 in0.0 mm 0.00 in0.0 mm 0.43 in10.9 mm
07:05 PM 75.3°F24.1°C 72.2°F22.3°C 90% Calm Calm -- 29.88 in1011.9 mb 0.00 in0.0 mm 0.00 in0.0 mm 0.43 in10.9 mm
07:10 PM 75.4°F24.1°C 72.6°F22.6°C 91% Calm Calm -- 29.88 in1011.9 mb 0.00 in0.0 mm 0.00 in0.0 mm 0.43 in10.9 mm
07:15 PM 75.5°F24.2°C 72.7°F22.6°C 91% Calm Calm -- 29.88 in1011.9 mb 0.00 in0.0 mm 0.00 in0.0 mm 0.43 in10.9 mm
07:20 PM 75.5°F24.2°C 72.7°F22.6°C 91% Calm Calm -- 29.88 in1011.9 mb 0.00 in0.0 mm 0.00 in0.0 mm 0.43 in10.9 mm
07:25 PM 75.7°F24.3°C 72.9°F22.7°C 91% Calm Calm -- 29.88 in1011.9 mb 0.00 in0.0 mm 0.00 in0.0 mm 0.43 in10.9 mm
07:30 PM 75.8°F24.3°C 73.0°F22.8°C 91% Calm Calm -- 29.88 in1011.9 mb 0.00 in0.0 mm 0.00 in0.0 mm 0.43 in10.9 mm
07:35 PM 75.8°F24.3°C 72.6°F22.6°C 90% Calm Calm -- 29.88 in1011.9 mb 0.00 in0.0 mm 0.00 in0.0 mm 0.43 in10.9 mm
07:40 PM 75.7°F24.3°C 72.6°F22.6°C 90% Calm Calm 2.0 mph3.2 kmh 29.88 in1011.9 mb 0.00 in0.0 mm 0.00 in0.0 mm 0.43 in10.9 mm
07:45 PM 75.7°F24.3°C 72.9°F22.7°C 91% Calm Calm 1.0 mph1.6 kmh 29.87 in1011.5 mb 0.00 in0.0 mm 0.00 in0.0 mm 0.43 in10.9 mm
07:50 PM 75.6°F24.2°C 72.8°F22.7°C 91% Calm Calm -- 29.87 in1011.5 mb 0.00 in0.0 mm 0.00 in0.0 mm 0.43 in10.9 mm
07:55 PM 75.5°F24.2°C 72.7°F22.6°C 91% Calm Calm -- 29.87 in1011.5 mb 0.00 in0.0 mm 0.00 in0.0 mm 0.43 in10.9 mm
08:00 PM 75.5°F24.2°C 72.7°F22.6°C 91% Calm Calm -- 29.87 in1011.5 mb 0.00 in0.0 mm 0.00 in0.0 mm 0.43 in10.9 mm
08:05 PM 75.4°F24.1°C 72.6°F22.6°C 91% Calm Calm -- 29.87 in1011.5 mb 0.00 in0.0 mm 0.00 in0.0 mm 0.43 in10.9 mm
08:10 PM 75.4°F24.1°C 72.6°F22.6°C 91% Calm Calm -- 29.87 in1011.5 mb 0.00 in0.0 mm 0.00 in0.0 mm 0.43 in10.9 mm
08:15 PM 75.4°F24.1°C 72.6°F22.6°C 91% Calm Calm -- 29.87 in1011.5 mb 0.00 in0.0 mm 0.00 in0.0 mm 0.43 in10.9 mm
08:20 PM 75.3°F24.1°C 72.5°F22.5°C 91% Calm Calm -- 29.88 in1011.9 mb 0.00 in0.0 mm 0.00 in0.0 mm 0.43 in10.9 mm
08:25 PM 75.2°F24.0°C 72.4°F22.4°C 91% Calm Calm 2.0 mph3.2 kmh 29.88 in1011.9 mb 0.00 in0.0 mm 0.00 in0.0 mm 0.43 in10.9 mm
08:30 PM 75.3°F24.1°C 72.5°F22.5°C 91% Calm Calm 1.0 mph1.6 kmh 29.88 in1011.9 mb 0.00 in0.0 mm 0.00 in0.0 mm 0.43 in10.9 mm
08:35 PM 75.1°F23.9°C 72.3°F22.4°C 91% Calm Calm -- 29.88 in1011.9 mb 0.00 in0.0 mm 0.00 in0.0 mm 0.43 in10.9 mm
08:40 PM 74.9°F23.8°C 72.1°F22.3°C 91% Calm Calm 3.0 mph4.8 kmh 29.88 in1011.9 mb 0.00 in0.0 mm 0.00 in0.0 mm 0.43 in10.9 mm
08:45 PM 74.8°F23.8°C 71.7°F22.1°C 90% 1.0 mph 1.6 kmh 4.0 mph6.4 kmh 29.89 in1012.2 mb 0.00 in0.0 mm 0.00 in0.0 mm 0.43 in10.9 mm
08:50 PM 74.7°F23.7°C 71.9°F22.2°C 91% Calm Calm 2.0 mph3.2 kmh 29.89 in1012.2 mb 0.00 in0.0 mm 0.00 in0.0 mm 0.43 in10.9 mm
08:55 PM 74.5°F23.6°C 71.7°F22.1°C 91% Calm Calm 1.0 mph1.6 kmh 29.89 in1012.2 mb 0.00 in0.0 mm 0.00 in0.0 mm 0.43 in10.9 mm
09:00 PM 74.3°F23.5°C 71.5°F21.9°C 91% Calm Calm 2.0 mph3.2 kmh 29.89 in1012.2 mb 0.00 in0.0 mm 0.00 in0.0 mm 0.43 in10.9 mm
09:05 PM 74.3°F23.5°C 71.5°F21.9°C 91% Calm Calm 1.0 mph1.6 kmh 29.89 in1012.2 mb 0.00 in0.0 mm 0.00 in0.0 mm 0.43 in10.9 mm
09:10 PM 74.2°F23.4°C 71.4°F21.9°C 91% Calm Calm -- 29.89 in1012.2 mb 0.00 in0.0 mm 0.00 in0.0 mm 0.43 in10.9 mm
09:15 PM 74.2°F23.4°C 71.4°F21.9°C 91% Calm Calm -- 29.89 in1012.2 mb 0.00 in0.0 mm 0.00 in0.0 mm 0.43 in10.9 mm
09:20 PM 74.1°F23.4°C 71.3°F21.8°C 91% Calm Calm -- 29.90 in1012.5 mb 0.00 in0.0 mm 0.00 in0.0 mm 0.43 in10.9 mm
09:25 PM 74.1°F23.4°C 71.3°F21.8°C 91% Calm Calm -- 29.90 in1012.5 mb 0.00 in0.0 mm 0.00 in0.0 mm 0.43 in10.9 mm
09:30 PM 74.0°F23.3°C 71.2°F21.8°C 91% Calm Calm -- 29.90 in1012.5 mb 0.00 in0.0 mm 0.00 in0.0 mm 0.43 in10.9 mm
09:35 PM 74.1°F23.4°C 71.3°F21.8°C 91% Calm Calm -- 29.90 in1012.5 mb 0.00 in0.0 mm 0.00 in0.0 mm 0.43 in10.9 mm
09:40 PM 74.0°F23.3°C 71.2°F21.8°C 91% Calm Calm -- 29.89 in1012.2 mb 0.00 in0.0 mm 0.00 in0.0 mm 0.43 in10.9 mm
09:45 PM 74.0°F23.3°C 71.2°F21.8°C 91% Calm Calm -- 29.89 in1012.2 mb 0.00 in0.0 mm 0.00 in0.0 mm 0.43 in10.9 mm
09:50 PM 74.1°F23.4°C 71.3°F21.8°C 91% Calm Calm -- 29.90 in1012.5 mb 0.00 in0.0 mm 0.00 in0.0 mm 0.43 in10.9 mm
09:55 PM 74.1°F23.4°C 71.3°F21.8°C 91% Calm Calm -- 29.90 in1012.5 mb 0.00 in0.0 mm 0.00 in0.0 mm 0.43 in10.9 mm
10:00 PM 74.1°F23.4°C 71.3°F21.8°C 91% Calm Calm -- 29.90 in1012.5 mb 0.00 in0.0 mm 0.00 in0.0 mm 0.43 in10.9 mm
10:05 PM 74.1°F23.4°C 71.3°F21.8°C 91% Calm Calm -- 29.90 in1012.5 mb 0.00 in0.0 mm 0.00 in0.0 mm 0.43 in10.9 mm
10:10 PM 74.1°F23.4°C 71.3°F21.8°C 91% Calm Calm -- 29.90 in1012.5 mb 0.00 in0.0 mm 0.00 in0.0 mm 0.43 in10.9 mm
10:15 PM 74.1°F23.4°C 71.3°F21.8°C 91% Calm Calm -- 29.90 in1012.5 mb 0.00 in0.0 mm 0.00 in0.0 mm 0.43 in10.9 mm
10:20 PM 74.2°F23.4°C 71.4°F21.9°C 91% Calm Calm -- 29.90 in1012.5 mb 0.00 in0.0 mm 0.00 in0.0 mm 0.43 in10.9 mm
10:25 PM 74.2°F23.4°C 71.4°F21.9°C 91% Calm Calm -- 29.89 in1012.2 mb 0.00 in0.0 mm 0.00 in0.0 mm 0.43 in10.9 mm
10:30 PM 74.2°F23.4°C 71.4°F21.9°C 91% Calm Calm -- 29.89 in1012.2 mb 0.00 in0.0 mm 0.00 in0.0 mm 0.43 in10.9 mm
10:35 PM 74.1°F23.4°C 71.3°F21.8°C 91% Calm Calm -- 29.90 in1012.5 mb 0.00 in0.0 mm 0.00 in0.0 mm 0.43 in10.9 mm
10:40 PM 74.1°F23.4°C 71.3°F21.8°C 91% Calm Calm -- 29.90 in1012.5 mb 0.00 in0.0 mm 0.00 in0.0 mm 0.43 in10.9 mm
10:45 PM 74.2°F23.4°C 71.4°F21.9°C 91% Calm Calm -- 29.90 in1012.5 mb 0.00 in0.0 mm 0.00 in0.0 mm 0.43 in10.9 mm
10:50 PM 74.3°F23.5°C 71.5°F21.9°C 91% Calm Calm -- 29.91 in1012.9 mb 0.00 in0.0 mm 0.00 in0.0 mm 0.43 in10.9 mm
10:55 PM 74.2°F23.4°C 71.4°F21.9°C 91% Calm Calm -- 29.91 in1012.9 mb 0.00 in0.0 mm 0.00 in0.0 mm 0.43 in10.9 mm
11:00 PM 74.2°F23.4°C 71.4°F21.9°C 91% Calm Calm -- 29.91 in1012.9 mb 0.00 in0.0 mm 0.00 in0.0 mm 0.43 in10.9 mm
11:05 PM 74.2°F23.4°C 71.4°F21.9°C 91% Calm Calm -- 29.91 in1012.9 mb 0.00 in0.0 mm 0.00 in0.0 mm 0.43 in10.9 mm
11:10 PM 74.1°F23.4°C 71.3°F21.8°C 91% Calm Calm -- 29.91 in1012.9 mb 0.00 in0.0 mm 0.00 in0.0 mm 0.43 in10.9 mm
11:15 PM 74.2°F23.4°C 71.4°F21.9°C 91% Calm Calm -- 29.91 in1012.9 mb 0.00 in0.0 mm 0.00 in0.0 mm 0.43 in10.9 mm
11:20 PM 74.2°F23.4°C 71.7°F22.1°C 92% Calm Calm -- 29.91 in1012.9 mb 0.00 in0.0 mm 0.00 in0.0 mm 0.43 in10.9 mm
11:25 PM 74.2°F23.4°C 71.7°F22.1°C 92% Calm Calm -- 29.91 in1012.9 mb 0.00 in0.0 mm 0.00 in0.0 mm 0.43 in10.9 mm
11:30 PM 74.2°F23.4°C 71.7°F22.1°C 92% Calm Calm -- 29.91 in1012.9 mb 0.00 in0.0 mm 0.00 in0.0 mm 0.43 in10.9 mm
11:35 PM 74.2°F23.4°C 71.7°F22.1°C 92% Calm Calm -- 29.91 in1012.9 mb 0.00 in0.0 mm 0.00 in0.0 mm 0.43 in10.9 mm
11:40 PM 74.1°F23.4°C 71.6°F22.0°C 92% Calm Calm -- 29.91 in1012.9 mb 0.00 in0.0 mm 0.00 in0.0 mm 0.43 in10.9 mm
11:45 PM 74.2°F23.4°C 71.7°F22.1°C 92% Calm Calm -- 29.91 in1012.9 mb 0.00 in0.0 mm 0.00 in0.0 mm 0.43 in10.9 mm
11:50 PM 74.1°F23.4°C 71.6°F22.0°C 92% Calm Calm 3.0 mph4.8 kmh 29.90 in1012.5 mb 0.00 in0.0 mm 0.00 in0.0 mm 0.43 in10.9 mm
11:55 PM 74.1°F23.4°C 71.6°F22.0°C 92% Calm Calm -- 29.90 in1012.5 mb 0.00 in0.0 mm 0.00 in0.0 mm 0.43 in10.9 mm